ENST

Sandnessjøen , Stokka Airport

Alstahaug, Norway
METAR ENST 171450Z 03003KT 9999 FEW018 BKN025 01/M02 Q1018 RMK WIND 300FT 05003KT
Observed Flight Rules
Feb-17 @ 14:50 UTC (16 hours ago) Marginal Visual Flight Rules
Wind Visibility Clouds
30° at 3 knots 10,000+ meters
  • Few at 1,800' AGL
  • Broken at 2,500' AGL
Temperatures Readings
Current 1°C / 34°F
Dewpoint -2°C / 28°F
Humidity 81%
Altimeter 30.06" Hg
Pressure 1018 hPa
Elevation 17
METAR ENST 171450Z 03003KT 9999 FEW018 BKN025 01/M02 Q1018 RMK WIND 300FT 05003KT
Observed Flight Rules
Feb-17 @ 14:50 UTC
(16 hours ago)
MVFR
Wind Visibility
30° at 3 knots 10,000+ meters
Clouds
  • Few at 1,800' AGL
  • Broken at 2,500' AGL
Temperature Dewpoint
1°C / 34°F -2°C / 28°F
Humidity Altimeter Pressure
81% 30.06" Hg 1018 hPa